sensor_id;sensor_type;location;lat;lon;timestamp;pressure;altitude;pressure_sealevel;temperature;humidity
5595;BME280;1003;48.002;7.788;2023-06-04T00:02:25;98307.41;;;16.94;100.00
5595;BME280;1003;48.002;7.788;2023-06-04T00:04:52;98310.03;;;16.93;100.00
5595;BME280;1003;48.002;7.788;2023-06-04T00:07:19;98318.38;;;16.95;100.00
5595;BME280;1003;48.002;7.788;2023-06-04T00:09:47;98298.97;;;16.94;100.00
5595;BME280;1003;48.002;7.788;2023-06-04T00:12:14;98307.56;;;16.91;100.00
5595;BME280;1003;48.002;7.788;2023-06-04T00:14:42;98311.88;;;16.89;100.00
5595;BME280;1003;48.002;7.788;2023-06-04T00:17:11;98314.72;;;16.83;100.00
5595;BME280;1003;48.002;7.788;2023-06-04T00:19:39;98323.53;;;16.76;100.00
5595;BME280;1003;48.002;7.788;2023-06-04T00:22:07;98328.75;;;16.73;100.00
5595;BME280;1003;48.002;7.788;2023-06-04T00:24:35;98329.94;;;16.66;100.00
5595;BME280;1003;48.002;7.788;2023-06-04T00:27:02;98319.34;;;16.58;100.00
5595;BME280;1003;48.002;7.788;2023-06-04T00:29:29;98325.59;;;16.50;100.00
5595;BME280;1003;48.002;7.788;2023-06-04T00:31:56;98322.44;;;16.45;100.00
5595;BME280;1003;48.002;7.788;2023-06-04T00:34:25;98319.31;;;16.40;100.00
5595;BME280;1003;48.002;7.788;2023-06-04T00:36:52;98320.50;;;16.33;100.00
5595;BME280;1003;48.002;7.788;2023-06-04T00:39:19;98324.16;;;16.27;100.00
5595;BME280;1003;48.002;7.788;2023-06-04T00:41:46;98321.75;;;16.24;100.00
5595;BME280;1003;48.002;7.788;2023-06-04T00:44:13;98308.41;;;16.21;100.00
5595;BME280;1003;48.002;7.788;2023-06-04T00:46:45;98313.69;;;16.16;100.00
5595;BME280;1003;48.002;7.788;2023-06-04T00:49:13;98303.16;;;16.07;100.00
5595;BME280;1003;48.002;7.788;2023-06-04T00:51:42;98300.78;;;16.04;100.00
5595;BME280;1003;48.002;7.788;2023-06-04T00:54:09;98295.97;;;15.97;100.00
5595;BME280;1003;48.002;7.788;2023-06-04T00:56:38;98294.69;;;15.89;100.00
5595;BME280;1003;48.002;7.788;2023-06-04T00:59:07;98293.25;;;15.83;100.00
5595;BME280;1003;48.002;7.788;2023-06-04T01:01:44;98286.69;;;15.79;100.00
5595;BME280;1003;48.002;7.788;2023-06-04T01:04:21;98292.97;;;15.70;100.00
5595;BME280;1003;48.002;7.788;2023-06-04T01:06:56;98290.03;;;15.61;100.00
5595;BME280;1003;48.002;7.788;2023-06-04T01:09:26;98281.00;;;15.55;100.00
5595;BME280;1003;48.002;7.788;2023-06-04T01:11:53;98282.06;;;15.49;100.00
5595;BME280;1003;48.002;7.788;2023-06-04T01:14:23;98269.69;;;15.43;100.00
5595;BME280;1003;48.002;7.788;2023-06-04T01:16:56;98262.22;;;15.40;100.00
5595;BME280;1003;48.002;7.788;2023-06-04T01:20:11;98262.44;;;15.36;100.00
5595;BME280;1003;48.002;7.788;2023-06-04T01:22:51;98264.34;;;15.31;100.00
5595;BME280;1003;48.002;7.788;2023-06-04T01:25:32;98255.38;;;15.23;100.00
5595;BME280;1003;48.002;7.788;2023-06-04T01:28:02;98255.59;;;15.19;100.00
5595;BME280;1003;48.002;7.788;2023-06-04T01:30:32;98241.41;;;15.15;100.00
5595;BME280;1003;48.002;7.788;2023-06-04T01:33:01;98240.72;;;15.11;100.00
5595;BME280;1003;48.002;7.788;2023-06-04T01:35:30;98236.75;;;15.06;100.00
5595;BME280;1003;48.002;7.788;2023-06-04T01:37:59;98241.97;;;15.03;100.00
5595;BME280;1003;48.002;7.788;2023-06-04T01:40:26;98237.16;;;14.96;100.00
5595;BME280;1003;48.002;7.788;2023-06-04T01:42:54;98236.25;;;14.98;100.00
5595;BME280;1003;48.002;7.788;2023-06-04T01:45:22;98239.63;;;14.98;100.00
5595;BME280;1003;48.002;7.788;2023-06-04T01:47:49;98237.97;;;14.97;100.00
5595;BME280;1003;48.002;7.788;2023-06-04T01:50:17;98237.97;;;14.97;100.00
5595;BME280;1003;48.002;7.788;2023-06-04T01:52:44;98238.03;;;14.95;100.00
5595;BME280;1003;48.002;7.788;2023-06-04T01:55:15;98239.72;;;14.95;100.00
5595;BME280;1003;48.002;7.788;2023-06-04T01:57:45;98244.25;;;14.88;100.00
5595;BME280;1003;48.002;7.788;2023-06-04T02:00:13;98245.13;;;14.87;100.00
5595;BME280;1003;48.002;7.788;2023-06-04T02:02:44;98236.81;;;14.85;100.00
5595;BME280;1003;48.002;7.788;2023-06-04T02:05:12;98244.50;;;14.82;100.00
5595;BME280;1003;48.002;7.788;2023-06-04T02:07:41;98240.34;;;14.81;100.00
5595;BME280;1003;48.002;7.788;2023-06-04T02:10:13;98243.06;;;14.77;100.00
5595;BME280;1003;48.002;7.788;2023-06-04T02:12:53;98243.06;;;14.77;100.00
5595;BME280;1003;48.002;7.788;2023-06-04T02:15:22;98237.44;;;14.70;100.00
5595;BME280;1003;48.002;7.788;2023-06-04T02:17:49;98246.78;;;14.68;100.00
5595;BME280;1003;48.002;7.788;2023-06-04T02:20:17;98242.69;;;14.65;100.00
5595;BME280;1003;48.002;7.788;2023-06-04T02:22:44;98250.47;;;14.61;100.00
5595;BME280;1003;48.002;7.788;2023-06-04T02:25:12;98248.94;;;14.57;100.00
5595;BME280;1003;48.002;7.788;2023-06-04T02:27:39;98249.13;;;14.52;100.00
5595;BME280;1003;48.002;7.788;2023-06-04T02:30:08;98242.59;;;14.47;100.00
5595;BME280;1003;48.002;7.788;2023-06-04T02:32:35;98242.84;;;14.40;100.00
5595;BME280;1003;48.002;7.788;2023-06-04T02:35:03;98241.31;;;14.36;100.00
5595;BME280;1003;48.002;7.788;2023-06-04T02:37:31;98228.81;;;14.33;100.00
5595;BME280;1003;48.002;7.788;2023-06-04T02:39:58;98236.66;;;14.27;100.00
5595;BME280;1003;48.002;7.788;2023-06-04T02:42:26;98246.03;;;14.24;100.00
5595;BME280;1003;48.002;7.788;2023-06-04T02:44:53;98247.94;;;14.18;100.00
5595;BME280;1003;48.002;7.788;2023-06-04T02:47:20;98248.88;;;14.16;100.00
5595;BME280;1003;48.002;7.788;2023-06-04T02:49:47;98258.22;;;14.14;100.00
5595;BME280;1003;48.002;7.788;2023-06-04T02:52:15;98258.38;;;14.09;100.00
5595;BME280;1003;48.002;7.788;2023-06-04T02:54:42;98256.75;;;14.08;100.00
5595;BME280;1003;48.002;7.788;2023-06-04T02:57:09;98256.09;;;14.03;100.00
5595;BME280;1003;48.002;7.788;2023-06-04T02:59:37;98259.66;;;13.99;100.00
5595;BME280;1003;48.002;7.788;2023-06-04T03:02:06;98260.50;;;13.98;100.00
5595;BME280;1003;48.002;7.788;2023-06-04T03:04:35;98264.06;;;13.94;100.00
5595;BME280;1003;48.002;7.788;2023-06-04T03:07:07;98265.06;;;13.90;100.00
5595;BME280;1003;48.002;7.788;2023-06-04T03:09:34;98265.94;;;13.89;100.00
5595;BME280;1003;48.002;7.788;2023-06-04T03:12:01;98269.41;;;13.86;100.00
5595;BME280;1003;48.002;7.788;2023-06-04T03:14:28;98272.06;;;13.83;100.00
5595;BME280;1003;48.002;7.788;2023-06-04T03:16:59;98278.84;;;13.81;100.00
5595;BME280;1003;48.002;7.788;2023-06-04T03:19:34;98273.09;;;13.78;100.00
5595;BME280;1003;48.002;7.788;2023-06-04T03:22:02;98276.50;;;13.77;100.00
5595;BME280;1003;48.002;7.788;2023-06-04T03:24:33;98284.88;;;13.77;100.00
5595;BME280;1003;48.002;7.788;2023-06-04T03:27:02;98286.72;;;13.74;100.00
5595;BME280;1003;48.002;7.788;2023-06-04T03:29:29;98279.31;;;13.69;100.00
5595;BME280;1003;48.002;7.788;2023-06-04T03:31:59;98282.75;;;13.66;100.00
5595;BME280;1003;48.002;7.788;2023-06-04T03:34:26;98288.75;;;13.64;100.00
5595;BME280;1003;48.002;7.788;2023-06-04T03:36:55;98289.56;;;13.64;100.00
5595;BME280;1003;48.002;7.788;2023-06-04T03:39:22;98289.72;;;13.61;100.00
5595;BME280;1003;48.002;7.788;2023-06-04T03:41:49;98290.63;;;13.59;100.00
5595;BME280;1003;48.002;7.788;2023-06-04T03:47:00;98296.63;;;13.56;100.00
5595;BME280;1003;48.002;7.788;2023-06-04T03:49:27;98299.97;;;13.57;100.00
5595;BME280;1003;48.002;7.788;2023-06-04T03:51:54;98304.88;;;13.60;100.00
5595;BME280;1003;48.002;7.788;2023-06-04T03:54:22;98297.22;;;13.63;100.00
5595;BME280;1003;48.002;7.788;2023-06-04T03:56:49;98304.84;;;13.61;100.00
5595;BME280;1003;48.002;7.788;2023-06-04T03:59:16;98308.13;;;13.63;100.00
5595;BME280;1003;48.002;7.788;2023-06-04T04:01:43;98314.91;;;13.63;100.00
5595;BME280;1003;48.002;7.788;2023-06-04T04:04:12;98311.47;;;13.64;100.00
5595;BME280;1003;48.002;7.788;2023-06-04T04:06:39;98330.69;;;13.68;100.00
5595;BME280;1003;48.002;7.788;2023-06-04T04:09:07;98322.16;;;13.72;100.00
5595;BME280;1003;48.002;7.788;2023-06-04T04:11:34;98336.06;;;13.82;100.00
5595;BME280;1003;48.002;7.788;2023-06-04T04:14:01;98335.72;;;13.91;100.00
5595;BME280;1003;48.002;7.788;2023-06-04T04:16:29;98334.72;;;13.96;100.00
5595;BME280;1003;48.002;7.788;2023-06-04T04:18:56;98342.84;;;14.04;100.00
5595;BME280;1003;48.002;7.788;2023-06-04T04:21:24;98340.09;;;14.10;100.00
5595;BME280;1003;48.002;7.788;2023-06-04T04:23:52;98353.34;;;14.15;100.00
5595;BME280;1003;48.002;7.788;2023-06-04T04:26:20;98363.47;;;14.15;100.00
5595;BME280;1003;48.002;7.788;2023-06-04T04:28:47;98359.06;;;14.20;100.00
5595;BME280;1003;48.002;7.788;2023-06-04T04:31:14;98370.03;;;14.21;100.00
5595;BME280;1003;48.002;7.788;2023-06-04T04:33:41;98378.19;;;14.27;100.00
5595;BME280;1003;48.002;7.788;2023-06-04T04:36:09;98382.47;;;14.25;100.00
5595;BME280;1003;48.002;7.788;2023-06-04T04:38:40;98409.91;;;14.34;100.00
5595;BME280;1003;48.002;7.788;2023-06-04T04:41:10;98419.72;;;14.42;100.00
5595;BME280;1003;48.002;7.788;2023-06-04T04:43:38;98429.91;;;14.40;100.00
5595;BME280;1003;48.002;7.788;2023-06-04T04:46:06;98440.75;;;14.44;100.00
5595;BME280;1003;48.002;7.788;2023-06-04T04:48:33;98442.38;;;14.45;100.00
5595;BME280;1003;48.002;7.788;2023-06-04T04:51:01;98452.06;;;14.57;100.00
5595;BME280;1003;48.002;7.788;2023-06-04T04:53:28;98462.59;;;14.68;100.00
5595;BME280;1003;48.002;7.788;2023-06-04T04:55:57;98478.25;;;14.78;100.00
5595;BME280;1003;48.002;7.788;2023-06-04T04:58:24;98498.22;;;15.06;100.00
5595;BME280;1003;48.002;7.788;2023-06-04T05:00:51;98512.53;;;15.29;100.00
5595;BME280;1003;48.002;7.788;2023-06-04T05:03:18;98533.84;;;15.44;100.00
5595;BME280;1003;48.002;7.788;2023-06-04T05:05:45;98543.13;;;15.45;100.00
5595;BME280;1003;48.002;7.788;2023-06-04T05:08:12;98551.75;;;15.61;100.00
5595;BME280;1003;48.002;7.788;2023-06-04T05:10:39;98556.69;;;16.25;100.00
5595;BME280;1003;48.002;7.788;2023-06-04T05:13:08;98590.47;;;17.39;100.00
5595;BME280;1003;48.002;7.788;2023-06-04T05:15:36;98663.41;;;16.99;100.00
5595;BME280;1003;48.002;7.788;2023-06-04T05:18:05;98663.13;;;16.87;100.00
5595;BME280;1003;48.002;7.788;2023-06-04T05:20:33;98688.75;;;17.39;100.00
5595;BME280;1003;48.002;7.788;2023-06-04T05:23:03;98736.31;;;18.26;100.00
5595;BME280;1003;48.002;7.788;2023-06-04T05:25:33;98761.31;;;18.53;100.00
5595;BME280;1003;48.002;7.788;2023-06-04T05:28:00;98778.75;;;17.90;100.00
5595;BME280;1003;48.002;7.788;2023-06-04T05:30:29;98779.97;;;17.43;100.00
5595;BME280;1003;48.002;7.788;2023-06-04T05:32:57;98767.25;;;17.24;100.00
5595;BME280;1003;48.002;7.788;2023-06-04T05:35:25;98775.38;;;17.51;100.00
5595;BME280;1003;48.002;7.788;2023-06-04T05:37:52;98760.25;;;17.67;100.00
5595;BME280;1003;48.002;7.788;2023-06-04T05:40:19;98777.31;;;18.38;100.00
5595;BME280;1003;48.002;7.788;2023-06-04T05:42:48;98806.09;;;18.74;100.00
5595;BME280;1003;48.002;7.788;2023-06-04T05:45:15;98811.31;;;18.88;100.00
5595;BME280;1003;48.002;7.788;2023-06-04T05:47:46;98832.91;;;19.48;100.00
5595;BME280;1003;48.002;7.788;2023-06-04T05:50:13;98840.72;;;19.62;100.00
5595;BME280;1003;48.002;7.788;2023-06-04T05:52:40;98853.50;;;18.77;100.00
5595;BME280;1003;48.002;7.788;2023-06-04T05:55:10;98845.66;;;18.45;100.00
5595;BME280;1003;48.002;7.788;2023-06-04T05:57:37;98852.53;;;18.43;100.00
5595;BME280;1003;48.002;7.788;2023-06-04T06:00:05;98851.53;;;19.17;100.00
5595;BME280;1003;48.002;7.788;2023-06-04T06:02:36;98875.88;;;18.70;100.00
5595;BME280;1003;48.002;7.788;2023-06-04T06:05:07;98855.91;;;18.80;100.00
5595;BME280;1003;48.002;7.788;2023-06-04T06:07:34;98864.56;;;18.76;100.00
5595;BME280;1003;48.002;7.788;2023-06-04T06:10:01;98866.50;;;18.88;100.00
5595;BME280;1003;48.002;7.788;2023-06-04T06:12:28;98869.75;;;19.42;100.00
5595;BME280;1003;48.002;7.788;2023-06-04T06:14:55;98882.03;;;20.16;100.00
5595;BME280;1003;48.002;7.788;2023-06-04T06:17:22;98891.06;;;20.69;100.00
5595;BME280;1003;48.002;7.788;2023-06-04T06:19:49;98893.81;;;21.10;100.00
5595;BME280;1003;48.002;7.788;2023-06-04T06:22:18;98915.97;;;21.83;100.00
5595;BME280;1003;48.002;7.788;2023-06-04T06:24:45;98937.44;;;22.50;100.00
5595;BME280;1003;48.002;7.788;2023-06-04T06:27:14;98959.38;;;21.98;100.00
5595;BME280;1003;48.002;7.788;2023-06-04T06:29:41;98957.09;;;21.21;100.00
5595;BME280;1003;48.002;7.788;2023-06-04T06:32:09;98953.91;;;20.24;100.00
5595;BME280;1003;48.002;7.788;2023-06-04T06:34:39;98939.16;;;19.47;100.00
5595;BME280;1003;48.002;7.788;2023-06-04T06:37:07;98927.56;;;19.24;100.00
5595;BME280;1003;48.002;7.788;2023-06-04T06:39:35;98916.88;;;19.18;100.00
5595;BME280;1003;48.002;7.788;2023-06-04T06:42:02;98910.25;;;19.31;100.00
5595;BME280;1003;48.002;7.788;2023-06-04T06:44:30;98911.50;;;20.22;100.00
5595;BME280;1003;48.002;7.788;2023-06-04T06:46:57;98930.81;;;20.89;100.00
5595;BME280;1003;48.002;7.788;2023-06-04T06:49:24;98938.72;;;21.14;100.00
5595;BME280;1003;48.002;7.788;2023-06-04T06:51:51;98951.63;;;21.86;100.00
5595;BME280;1003;48.002;7.788;2023-06-04T06:54:18;98957.66;;;22.13;100.00
5595;BME280;1003;48.002;7.788;2023-06-04T06:56:48;98969.88;;;21.94;100.00
5595;BME280;1003;48.002;7.788;2023-06-04T06:59:16;98964.31;;;22.01;100.00
5595;BME280;1003;48.002;7.788;2023-06-04T07:01:43;98969.59;;;22.27;100.00
5595;BME280;1003;48.002;7.788;2023-06-04T07:04:10;98971.69;;;22.06;100.00
5595;BME280;1003;48.002;7.788;2023-06-04T07:06:38;98962.41;;;21.77;100.00
5595;BME280;1003;48.002;7.788;2023-06-04T07:09:05;98951.09;;;22.36;100.00
5595;BME280;1003;48.002;7.788;2023-06-04T07:11:33;98966.34;;;22.52;100.00
5595;BME280;1003;48.002;7.788;2023-06-04T07:14:01;98968.47;;;23.52;100.00
5595;BME280;1003;48.002;7.788;2023-06-04T07:16:29;98983.78;;;23.14;100.00
5595;BME280;1003;48.002;7.788;2023-06-04T07:18:56;98985.00;;;23.08;100.00
5595;BME280;1003;48.002;7.788;2023-06-04T07:21:23;98988.69;;;22.50;100.00
5595;BME280;1003;48.002;7.788;2023-06-04T07:23:50;98977.38;;;22.11;100.00
5595;BME280;1003;48.002;7.788;2023-06-04T07:26:18;98970.72;;;21.66;100.00
5595;BME280;1003;48.002;7.788;2023-06-04T07:28:46;98969.53;;;21.27;100.00
5595;BME280;1003;48.002;7.788;2023-06-04T07:31:16;98956.13;;;20.93;100.00
5595;BME280;1003;48.002;7.788;2023-06-04T07:33:44;98960.84;;;19.89;100.00
5595;BME280;1003;48.002;7.788;2023-06-04T07:36:12;98947.09;;;19.58;100.00
5595;BME280;1003;48.002;7.788;2023-06-04T07:38:40;98937.16;;;19.54;100.00
5595;BME280;1003;48.002;7.788;2023-06-04T07:41:07;98929.63;;;19.51;100.00
5595;BME280;1003;48.002;7.788;2023-06-04T07:43:35;98926.00;;;19.22;100.00
5595;BME280;1003;48.002;7.788;2023-06-04T07:46:04;98934.09;;;19.12;100.00
5595;BME280;1003;48.002;7.788;2023-06-04T07:48:32;98922.09;;;18.80;100.00
5595;BME280;1003;48.002;7.788;2023-06-04T07:51:02;98922.47;;;18.53;100.00
5595;BME280;1003;48.002;7.788;2023-06-04T07:53:30;98908.22;;;18.49;100.00
5595;BME280;1003;48.002;7.788;2023-06-04T07:55:57;98892.53;;;18.58;100.00
5595;BME280;1003;48.002;7.788;2023-06-04T07:58:24;98901.81;;;18.78;100.00
5595;BME280;1003;48.002;7.788;2023-06-04T08:00:53;98892.28;;;18.99;100.00
5595;BME280;1003;48.002;7.788;2023-06-04T08:03:20;98898.56;;;19.09;100.00
5595;BME280;1003;48.002;7.788;2023-06-04T08:05:51;98907.34;;;19.04;100.00
5595;BME280;1003;48.002;7.788;2023-06-04T08:08:18;98914.38;;;18.81;100.00
5595;BME280;1003;48.002;7.788;2023-06-04T08:10:45;98907.38;;;18.13;100.00
5595;BME280;1003;48.002;7.788;2023-06-04T08:13:12;98894.13;;;17.87;100.00
5595;BME280;1003;48.002;7.788;2023-06-04T08:15:39;98889.38;;;17.59;100.00
5595;BME280;1003;48.002;7.788;2023-06-04T08:18:06;98877.25;;;17.66;100.00
5595;BME280;1003;48.002;7.788;2023-06-04T08:20:33;98869.41;;;17.31;100.00
5595;BME280;1003;48.002;7.788;2023-06-04T08:23:02;98850.19;;;17.25;100.00
5595;BME280;1003;48.002;7.788;2023-06-04T08:25:29;98833.94;;;17.09;100.00
5595;BME280;1003;48.002;7.788;2023-06-04T08:27:57;98834.22;;;17.03;100.00
5595;BME280;1003;48.002;7.788;2023-06-04T08:30:25;98807.38;;;16.77;100.00
5595;BME280;1003;48.002;7.788;2023-06-04T08:32:53;98784.59;;;16.75;100.00
5595;BME280;1003;48.002;7.788;2023-06-04T08:35:20;98787.84;;;16.79;100.00
5595;BME280;1003;48.002;7.788;2023-06-04T08:37:47;98774.97;;;16.62;100.00
5595;BME280;1003;48.002;7.788;2023-06-04T08:40:16;98744.06;;;16.74;100.00
5595;BME280;1003;48.002;7.788;2023-06-04T08:42:44;98727.28;;;16.90;100.00
5595;BME280;1003;48.002;7.788;2023-06-04T08:45:13;98734.97;;;16.48;100.00
5595;BME280;1003;48.002;7.788;2023-06-04T08:47:48;98722.84;;;16.54;100.00
5595;BME280;1003;48.002;7.788;2023-06-04T08:50:19;98700.31;;;16.88;100.00
5595;BME280;1003;48.002;7.788;2023-06-04T08:52:47;98694.81;;;16.78;100.00
5595;BME280;1003;48.002;7.788;2023-06-04T08:55:16;98694.28;;;16.70;100.00
5595;BME280;1003;48.002;7.788;2023-06-04T08:57:43;98683.66;;;16.41;100.00
5595;BME280;1003;48.002;7.788;2023-06-04T09:00:12;98677.28;;;16.51;100.00
5595;BME280;1003;48.002;7.788;2023-06-04T09:02:39;98664.41;;;16.76;100.00
5595;BME280;1003;48.002;7.788;2023-06-04T09:05:07;98682.34;;;17.11;100.00
5595;BME280;1003;48.002;7.788;2023-06-04T09:07:38;98693.31;;;17.30;100.00
5595;BME280;1003;48.002;7.788;2023-06-04T09:10:08;98697.50;;;17.50;100.00
5595;BME280;1003;48.002;7.788;2023-06-04T09:12:43;98698.63;;;17.45;100.00
5595;BME280;1003;48.002;7.788;2023-06-04T09:15:10;98696.06;;;17.26;100.00
5595;BME280;1003;48.002;7.788;2023-06-04T09:17:38;98703.97;;;17.76;100.00
5595;BME280;1003;48.002;7.788;2023-06-04T09:20:06;98719.53;;;18.40;100.00
5595;BME280;1003;48.002;7.788;2023-06-04T09:22:36;98753.66;;;18.87;100.00
5595;BME280;1003;48.002;7.788;2023-06-04T09:25:18;98766.00;;;18.60;100.00
5595;BME280;1003;48.002;7.788;2023-06-04T09:27:47;98765.97;;;18.79;100.00
5595;BME280;1003;48.002;7.788;2023-06-04T09:30:14;98778.22;;;18.71;100.00
5595;BME280;1003;48.002;7.788;2023-06-04T09:32:42;98778.50;;;19.00;100.00
5595;BME280;1003;48.002;7.788;2023-06-04T09:35:10;98783.78;;;19.93;100.00
5595;BME280;1003;48.002;7.788;2023-06-04T09:37:38;98825.09;;;19.68;100.00
5595;BME280;1003;48.002;7.788;2023-06-04T09:40:07;98830.94;;;19.70;100.00
5595;BME280;1003;48.002;7.788;2023-06-04T09:42:44;98836.66;;;20.83;100.00
5595;BME280;1003;48.002;7.788;2023-06-04T09:45:13;98856.88;;;20.86;100.00
5595;BME280;1003;48.002;7.788;2023-06-04T09:47:42;98869.25;;;21.08;100.00
5595;BME280;1003;48.002;7.788;2023-06-04T09:50:11;98865.47;;;20.85;100.00
5595;BME280;1003;48.002;7.788;2023-06-04T09:52:38;98871.41;;;21.58;100.00
5595;BME280;1003;48.002;7.788;2023-06-04T09:55:16;98889.50;;;21.55;100.00
5595;BME280;1003;48.002;7.788;2023-06-04T09:57:50;98890.13;;;21.73;100.00
5595;BME280;1003;48.002;7.788;2023-06-04T10:00:21;98897.69;;;21.89;100.00
5595;BME280;1003;48.002;7.788;2023-06-04T10:02:49;98903.53;;;21.91;100.00
5595;BME280;1003;48.002;7.788;2023-06-04T10:05:18;98910.84;;;21.83;100.00
5595;BME280;1003;48.002;7.788;2023-06-04T10:07:51;98910.19;;;22.08;100.00
5595;BME280;1003;48.002;7.788;2023-06-04T10:10:26;98921.41;;;22.34;100.00
5595;BME280;1003;48.002;7.788;2023-06-04T10:13:00;98911.31;;;22.45;100.00
5595;BME280;1003;48.002;7.788;2023-06-04T10:15:31;98922.34;;;22.72;100.00
5595;BME280;1003;48.002;7.788;2023-06-04T10:18:01;98926.84;;;22.69;100.00
5595;BME280;1003;48.002;7.788;2023-06-04T10:20:30;98944.03;;;22.13;100.00
5595;BME280;1003;48.002;7.788;2023-06-04T10:22:57;98932.69;;;22.44;100.00
5595;BME280;1003;48.002;7.788;2023-06-04T10:25:26;98935.91;;;21.92;100.00
5595;BME280;1003;48.002;7.788;2023-06-04T10:27:55;98922.63;;;21.99;100.00
5595;BME280;1003;48.002;7.788;2023-06-04T10:30:22;98928.81;;;22.10;100.00
5595;BME280;1003;48.002;7.788;2023-06-04T10:32:51;98918.72;;;21.80;100.00
5595;BME280;1003;48.002;7.788;2023-06-04T10:35:30;98906.47;;;21.56;100.00
5595;BME280;1003;48.002;7.788;2023-06-04T10:38:06;98884.41;;;21.11;100.00
5595;BME280;1003;48.002;7.788;2023-06-04T10:40:35;98878.25;;;20.85;100.00
5595;BME280;1003;48.002;7.788;2023-06-04T10:43:06;98866.88;;;21.19;100.00
5595;BME280;1003;48.002;7.788;2023-06-04T10:45:33;98869.03;;;21.41;100.00
5595;BME280;1003;48.002;7.788;2023-06-04T10:48:03;98890.75;;;21.77;100.00
5595;BME280;1003;48.002;7.788;2023-06-04T10:50:32;98892.94;;;21.83;100.00
5595;BME280;1003;48.002;7.788;2023-06-04T10:53:00;98891.81;;;21.15;100.00
5595;BME280;1003;48.002;7.788;2023-06-04T10:55:29;98891.84;;;21.30;100.00
5595;BME280;1003;48.002;7.788;2023-06-04T10:57:58;98904.81;;;21.41;100.00
5595;BME280;1003;48.002;7.788;2023-06-04T11:00:36;98914.88;;;21.44;100.00
5595;BME280;1003;48.002;7.788;2023-06-04T11:03:06;98908.94;;;21.43;100.00
5595;BME280;1003;48.002;7.788;2023-06-04T11:05:34;98893.59;;;21.43;100.00
5595;BME280;1003;48.002;7.788;2023-06-04T11:08:03;98891.97;;;22.26;100.00
5595;BME280;1003;48.002;7.788;2023-06-04T11:10:33;98906.75;;;22.75;100.00
5595;BME280;1003;48.002;7.788;2023-06-04T11:13:02;98911.44;;;22.56;100.00
5595;BME280;1003;48.002;7.788;2023-06-04T11:15:38;98909.44;;;22.74;100.00
5595;BME280;1003;48.002;7.788;2023-06-04T11:18:07;98914.69;;;22.45;100.00
5595;BME280;1003;48.002;7.788;2023-06-04T11:20:34;98907.16;;;22.15;100.00
5595;BME280;1003;48.002;7.788;2023-06-04T11:23:01;98894.66;;;23.17;100.00
5595;BME280;1003;48.002;7.788;2023-06-04T11:25:30;98919.16;;;22.96;100.00
5595;BME280;1003;48.002;7.788;2023-06-04T11:27:59;98903.69;;;22.70;100.00
5595;BME280;1003;48.002;7.788;2023-06-04T11:30:27;98893.09;;;22.89;100.00
5595;BME280;1003;48.002;7.788;2023-06-04T11:33:02;98883.88;;;23.12;100.00
5595;BME280;1003;48.002;7.788;2023-06-04T11:35:39;98894.38;;;23.09;100.00
5595;BME280;1003;48.002;7.788;2023-06-04T11:38:07;98898.38;;;23.39;100.00
5595;BME280;1003;48.002;7.788;2023-06-04T11:40:35;98891.28;;;23.29;100.00
5595;BME280;1003;48.002;7.788;2023-06-04T11:43:02;98887.75;;;22.52;100.00
5595;BME280;1003;48.002;7.788;2023-06-04T11:45:30;98872.41;;;22.25;100.00
5595;BME280;1003;48.002;7.788;2023-06-04T11:47:57;98858.19;;;22.61;100.00
5595;BME280;1003;48.002;7.788;2023-06-04T11:50:28;98861.22;;;22.53;100.00
5595;BME280;1003;48.002;7.788;2023-06-04T11:52:58;98876.03;;;22.75;100.00
5595;BME280;1003;48.002;7.788;2023-06-04T11:55:26;98878.66;;;22.61;100.00
5595;BME280;1003;48.002;7.788;2023-06-04T11:57:54;98879.59;;;23.00;100.00
5595;BME280;1003;48.002;7.788;2023-06-04T12:00:21;98870.66;;;23.05;100.00
5595;BME280;1003;48.002;7.788;2023-06-04T12:02:51;98877.94;;;23.24;100.00
5595;BME280;1003;48.002;7.788;2023-06-04T12:05:20;98880.53;;;23.37;100.00
5595;BME280;1003;48.002;7.788;2023-06-04T12:07:49;98873.53;;;23.39;100.00
5595;BME280;1003;48.002;7.788;2023-06-04T12:10:18;98882.06;;;23.65;100.00
5595;BME280;1003;48.002;7.788;2023-06-04T12:12:46;98883.78;;;23.39;100.00
5595;BME280;1003;48.002;7.788;2023-06-04T12:15:19;98880.72;;;23.47;100.00
5595;BME280;1003;48.002;7.788;2023-06-04T12:17:50;98876.81;;;23.16;100.00
5595;BME280;1003;48.002;7.788;2023-06-04T12:20:18;98865.44;;;23.07;100.00
5595;BME280;1003;48.002;7.788;2023-06-04T12:22:46;98880.81;;;23.33;100.00
5595;BME280;1003;48.002;7.788;2023-06-04T12:25:25;98873.81;;;23.60;100.00
5595;BME280;1003;48.002;7.788;2023-06-04T12:27:53;98874.84;;;23.70;100.00
5595;BME280;1003;48.002;7.788;2023-06-04T12:30:20;98881.94;;;24.03;100.00
5595;BME280;1003;48.002;7.788;2023-06-04T12:32:48;98883.88;;;24.13;100.00
5595;BME280;1003;48.002;7.788;2023-06-04T12:35:16;98893.00;;;24.17;100.00
5595;BME280;1003;48.002;7.788;2023-06-04T12:37:43;98887.53;;;23.97;100.00
5595;BME280;1003;48.002;7.788;2023-06-04T12:40:11;98877.47;;;24.55;100.00
5595;BME280;1003;48.002;7.788;2023-06-04T12:42:40;98880.63;;;25.05;100.00
5595;BME280;1003;48.002;7.788;2023-06-04T12:45:10;98886.16;;;25.34;100.00
5595;BME280;1003;48.002;7.788;2023-06-04T12:47:40;98904.56;;;25.52;100.00
5595;BME280;1003;48.002;7.788;2023-06-04T12:50:08;98908.88;;;25.40;100.00
5595;BME280;1003;48.002;7.788;2023-06-04T12:52:36;98910.38;;;25.20;100.00
5595;BME280;1003;48.002;7.788;2023-06-04T12:55:04;98881.50;;;25.28;100.00
5595;BME280;1003;48.002;7.788;2023-06-04T12:57:31;98887.56;;;25.72;100.00
5595;BME280;1003;48.002;7.788;2023-06-04T12:59:59;98898.50;;;26.30;100.00
5595;BME280;1003;48.002;7.788;2023-06-04T13:02:26;98881.31;;;26.19;100.00
5595;BME280;1003;48.002;7.788;2023-06-04T13:04:53;98881.94;;;26.11;100.00
5595;BME280;1003;48.002;7.788;2023-06-04T13:07:21;98888.22;;;26.18;100.00
5595;BME280;1003;48.002;7.788;2023-06-04T13:09:48;98881.16;;;25.88;100.00
5595;BME280;1003;48.002;7.788;2023-06-04T13:12:16;98875.00;;;26.12;100.00
5595;BME280;1003;48.002;7.788;2023-06-04T13:14:43;98878.47;;;25.90;100.00
5595;BME280;1003;48.002;7.788;2023-06-04T13:17:11;98870.97;;;25.64;100.00
5595;BME280;1003;48.002;7.788;2023-06-04T13:19:39;98877.19;;;25.62;100.00
5595;BME280;1003;48.002;7.788;2023-06-04T13:22:06;98873.91;;;25.60;100.00